< Typhoon 199116 1991 Season Typhoon 199118 >
Typhoon 199117 (KINNA)
General InformationTrack Information on Google MapsDetailed Wind InformationList of All Images || NewsDisaster Info.ResourceGoogle EarthGE AnimationAtom FeedGeoJSON
Detalied Best Track (Time Zone = UTC)
Year Month Day Hour Lat. Long. Pressure (hPa) Wind (kt) Class Image Chart
1991 9 10 00 14.0 141.0 1006 0 2 Image Chart
1991 9 10 06 15.2 140.3 1004 0 2 Image Chart
1991 9 10 12 16.5 139.6 1004 0 2 Image Chart
1991 9 10 18 17.9 138.3 1002 0 2 Image Chart
1991 9 11 00 19.1 136.1 1000 0 2 Image Chart
1991 9 11 06 20.4 134.2 992 40 3 Image Chart
1991 9 11 12 21.1 133.2 990 45 3 Image Chart
1991 9 11 18 22.2 131.9 985 50 4 Image Chart
1991 9 12 00 23.0 130.4 980 55 4 Image Chart
1991 9 12 03 23.7 129.5 980 55 4 Image Chart
1991 9 12 06 24.2 129.2 980 55 4 Image Chart
1991 9 12 09 24.5 128.9 980 55 4 Image Chart
1991 9 12 12 24.8 128.6 975 60 4 Image Chart
1991 9 12 15 25.1 128.2 970 65 5 Image Chart
1991 9 12 18 25.5 128.0 965 70 5 Image Chart
1991 9 12 21 26.3 127.8 960 75 5 Image Chart
1991 9 13 00 26.8 127.8 955 80 5 Image Chart
1991 9 13 03 27.6 127.8 955 80 5 Image Chart
1991 9 13 06 28.5 127.9 955 80 5 Image Chart
1991 9 13 09 29.2 128.0 955 80 5 Image Chart
1991 9 13 12 30.0 128.3 955 80 5 Image Chart
1991 9 13 15 30.9 128.7 955 80 5 Image Chart
1991 9 13 18 31.9 129.1 960 75 5 Image Chart
1991 9 13 20 32.7 129.7 965 70 5 Image Chart
1991 9 13 21 33.1 130.1 970 65 5 Image Chart
1991 9 14 00 34.1 130.7 980 60 4 Image Chart
1991 9 14 03 35.1 132.6 985 55 4 Image Chart
1991 9 14 06 36.0 134.4 990 55 4 Image Chart
1991 9 14 09 37.0 136.4 992 45 3 Image Chart
1991 9 14 11 37.5 138.0 996 45 3 Image Chart
1991 9 14 12 38.0 140.0 1000 0 6 Image Chart
1991 9 14 18 39.0 145.0 1004 0 6 Image Chart
1991 9 15 00 41.0 151.0 1004 0 6 Image Chart
1991 9 15 06 41.0 156.0 1004 0 6 Image Chart
1991 9 15 12 41.0 162.0 1004 0 6 Image Chart
1991 9 15 18 41.0 166.0 1002 0 6 Image Chart
1991 9 16 00 41.0 170.0 1000 0 6 Image Chart
1991 9 16 06 41.0 175.0 998 0 6 Image Chart
1991 9 16 12 41.0 180.0 998 0 6 Image Chart
1991 9 16 18 41.0 183.0 998 0 6 Image Chart
Japan Meteorological Agency Best Track Data | Correction Date : 1992-01-04
< Typhoon 199116 1991 Season Typhoon 199118 >

Help